Time;durP1;ratioP1;P1;durP2;ratioP2;P2;SDS_P1;SDS_P2;PMS_P1;PMS_P2;Temp;Humidity;BMP_temperature;BMP_pressure;BME280_temperature;BME280_humidity;BME280_pressure;Samples;Min_cycle;Max_cycle;Signal;HPM_P1;HPM_P2
2023/04/25 00:01:13;;;;;;;5.40;3.70;;;;;;;11.96;100.00;94421.59;5015387;28;20235;-72
2023/04/25 00:03:39;;;;;;;6.07;3.50;;;;;;;11.86;100.00;94421.28;5009424;28;20242;-73
2023/04/25 00:06:06;;;;;;;5.37;3.40;;;;;;;11.84;100.00;94427.78;5002636;28;20239;-73
2023/04/25 00:08:32;;;;;;;6.83;3.70;;;;;;;11.96;100.00;94413.72;4986005;28;20233;-73
2023/04/25 00:10:57;;;;;;;6.80;3.80;;;;;;;11.93;100.00;94408.91;5029768;28;20260;-73
2023/04/25 00:13:23;;;;;;;4.90;3.67;;;;;;;11.96;100.00;94397.97;5027099;28;20245;-74
2023/04/25 00:15:48;;;;;;;6.33;3.70;;;;;;;11.81;100.00;94386.25;5011490;28;20237;-75
2023/04/25 00:18:14;;;;;;;6.13;3.53;;;;;;;11.58;100.00;94383.47;5003829;28;20222;-74
2023/04/25 00:20:40;;;;;;;5.40;3.50;;;;;;;11.68;100.00;94373.31;5011147;28;20234;-74
2023/04/25 00:23:05;;;;;;;5.40;3.77;;;;;;;11.66;100.00;94367.44;4982735;28;20238;-73
2023/04/25 00:25:31;;;;;;;6.50;4.80;;;;;;;11.63;100.00;94367.91;5003195;28;20701;-74
2023/04/25 00:27:56;;;;;;;6.20;4.00;;;;;;;11.86;100.00;94378.53;5006342;28;20227;-74
2023/04/25 00:30:22;;;;;;;6.47;4.40;;;;;;;11.98;100.00;94374.16;4988531;28;20230;-74
2023/04/25 00:32:48;;;;;;;6.13;4.60;;;;;;;11.79;100.00;94368.13;5003229;28;20767;-74
2023/04/25 00:35:14;;;;;;;8.37;4.33;;;;;;;11.79;100.00;94370.75;4999066;28;20237;-74
2023/04/25 00:37:39;;;;;;;5.80;4.30;;;;;;;11.81;100.00;94373.16;4994212;28;20244;-74
2023/04/25 00:40:06;;;;;;;7.43;4.47;;;;;;;11.68;100.00;94366.22;5008784;28;20254;-74
2023/04/25 00:42:31;;;;;;;5.83;3.97;;;;;;;11.86;100.00;94370.66;5002511;28;20245;-73
2023/04/25 00:44:58;;;;;;;6.00;4.40;;;;;;;11.85;100.00;94364.63;4999884;28;20673;-74
2023/04/25 00:47:23;;;;;;;8.93;4.50;;;;;;;11.77;100.00;94364.94;4989302;28;20310;-73
2023/04/25 00:49:49;;;;;;;7.27;4.43;;;;;;;11.49;100.00;94362.78;4991457;28;20234;-74
2023/04/25 00:52:14;;;;;;;7.10;4.13;;;;;;;11.61;100.00;94365.47;5005723;28;20233;-74
2023/04/25 00:54:40;;;;;;;5.93;4.20;;;;;;;11.64;100.00;94357.19;5000143;28;20873;-73
2023/04/25 00:57:05;;;;;;;6.80;4.10;;;;;;;11.69;100.00;94367.84;4999228;28;20230;-73
2023/04/25 00:59:31;;;;;;;7.37;4.23;;;;;;;11.69;100.00;94367.84;5000478;28;20223;-74
2023/04/25 01:01:56;;;;;;;6.23;4.53;;;;;;;11.59;100.00;94374.56;5005522;28;21035;-74
2023/04/25 01:04:22;;;;;;;6.23;4.30;;;;;;;11.70;100.00;94377.28;4993693;28;20641;-73
2023/04/25 01:06:48;;;;;;;7.47;4.47;;;;;;;11.73;100.00;94376.88;5006841;28;20230;-73
2023/04/25 01:09:14;;;;;;;6.00;4.33;;;;;;;11.52;100.00;94357.13;4985818;28;20239;-73
2023/04/25 01:11:40;;;;;;;6.43;4.37;;;;;;;11.58;100.00;94349.41;5015865;28;20242;-73
2023/04/25 01:14:05;;;;;;;6.67;4.43;;;;;;;11.75;100.00;94356.47;5004940;28;20231;-73
2023/04/25 01:16:31;;;;;;;6.77;4.70;;;;;;;11.62;100.00;94343.50;5015097;28;20301;-73
2023/04/25 01:18:59;;;;;;;6.10;4.53;;;;;;;11.55;100.00;94332.28;5027096;28;20219;-74
2023/04/25 01:21:27;;;;;;;6.83;4.60;;;;;;;11.53;100.00;94339.59;5001750;28;20289;-73
2023/04/25 01:23:52;;;;;;;7.93;4.00;;;;;;;11.44;100.00;94328.56;5001241;28;20226;-74
2023/04/25 01:26:18;;;;;;;5.57;4.07;;;;;;;11.45;100.00;94326.75;5002453;28;20241;-73
2023/04/25 01:28:43;;;;;;;7.53;3.80;;;;;;;11.49;100.00;94330.53;4993550;28;20233;-74
2023/04/25 01:31:09;;;;;;;7.43;4.33;;;;;;;11.49;100.00;94325.28;4999975;28;20249;-73
2023/04/25 01:33:34;;;;;;;6.63;4.43;;;;;;;11.21;100.00;94328.44;5000712;28;20300;-73
2023/04/25 01:36:00;;;;;;;6.53;4.43;;;;;;;11.28;100.00;94329.16;4982764;28;20238;-73
2023/04/25 01:38:25;;;;;;;7.33;3.97;;;;;;;11.33;100.00;94328.50;5001497;28;20743;-72
2023/04/25 01:40:52;;;;;;;7.07;4.43;;;;;;;11.43;100.00;94323.56;4999978;28;20241;-73
2023/04/25 01:43:17;;;;;;;6.40;4.47;;;;;;;11.26;100.00;94330.41;5000635;28;20974;-72
2023/04/25 01:45:42;;;;;;;5.40;4.00;;;;;;;11.23;100.00;94325.59;5016979;28;20238;-72
2023/04/25 01:48:09;;;;;;;6.07;4.00;;;;;;;11.27;100.00;94332.00;4993101;28;20231;-73
2023/04/25 01:50:34;;;;;;;5.80;3.93;;;;;;;11.34;100.00;94328.28;4998951;28;20266;-71
2023/04/25 01:53:01;;;;;;;5.90;4.30;;;;;;;11.10;100.00;94334.41;4984154;28;20257;-72
2023/04/25 01:55:27;;;;;;;8.00;4.20;;;;;;;11.21;100.00;94344.16;5000804;28;20235;-72
2023/04/25 01:57:52;;;;;;;5.43;3.60;;;;;;;11.20;100.00;94341.75;5000241;28;20237;-73
2023/04/25 02:00:18;;;;;;;5.20;3.70;;;;;;;11.30;100.00;94339.41;4988070;28;20234;-72
2023/04/25 02:02:43;;;;;;;4.40;3.60;;;;;;;11.36;100.00;94333.31;4999850;28;20227;-71
2023/04/25 02:05:09;;;;;;;5.03;3.60;;;;;;;11.40;100.00;94332.66;5017947;28;20938;-71
2023/04/25 02:07:34;;;;;;;4.60;3.67;;;;;;;11.30;100.00;94345.47;4986599;28;20350;-72
2023/04/25 02:10:00;;;;;;;5.13;3.90;;;;;;;11.41;100.00;94334.28;4983508;28;20778;-72
2023/04/25 02:12:27;;;;;;;8.10;4.10;;;;;;;11.45;100.00;94326.75;5007183;28;21004;-72
2023/04/25 02:14:52;;;;;;;4.90;4.00;;;;;;;11.18;100.00;94330.69;4987741;28;20234;-73
2023/04/25 02:17:18;;;;;;;5.87;3.80;;;;;;;11.19;100.00;94325.25;4999349;28;20234;-72
2023/04/25 02:19:43;;;;;;;6.43;3.77;;;;;;;11.30;100.00;94327.13;5005772;28;20279;-72
2023/04/25 02:22:10;;;;;;;5.83;3.90;;;;;;;11.11;100.00;94314.22;5005608;28;20237;-72
2023/04/25 02:24:35;;;;;;;6.77;3.83;;;;;;;11.06;100.00;94311.47;5019336;28;20230;-72
2023/04/25 02:27:01;;;;;;;6.90;3.90;;;;;;;11.16;100.00;94298.66;5006298;28;20239;-73
2023/04/25 02:29:26;;;;;;;5.80;4.20;;;;;;;11.23;100.00;94299.41;4987007;28;20238;-72
2023/04/25 02:31:52;;;;;;;6.67;4.40;;;;;;;11.20;100.00;94305.09;4999305;28;20226;-73
2023/04/25 02:34:17;;;;;;;7.83;4.33;;;;;;;10.83;100.00;94302.44;4991887;28;20230;-71
2023/04/25 02:36:43;;;;;;;6.23;4.20;;;;;;;10.64;100.00;94290.34;5024142;28;20230;-72
2023/04/25 02:39:08;;;;;;;9.40;4.93;;;;;;;10.79;100.00;94282.16;4982793;28;20234;-72
2023/04/25 02:41:33;;;;;;;7.33;4.73;;;;;;;10.68;100.00;94286.25;5002443;28;20234;-71
2023/04/25 02:43:59;;;;;;;5.90;4.53;;;;;;;10.65;100.00;94291.91;4999275;28;20230;-72
2023/04/25 02:46:24;;;;;;;6.17;4.27;;;;;;;10.82;100.00;94294.78;5004742;28;20234;-72
2023/04/25 02:48:50;;;;;;;6.80;4.50;;;;;;;10.76;100.00;94290.44;4986061;28;20230;-72
2023/04/25 02:51:16;;;;;;;6.27;4.67;;;;;;;10.76;100.00;94287.81;5008801;28;20234;-73
2023/04/25 02:53:42;;;;;;;10.77;4.87;;;;;;;10.80;100.00;94284.53;5017525;28;20928;-73
2023/04/25 02:56:07;;;;;;;8.83;5.03;;;;;;;10.88;100.00;94288.69;5002472;28;20231;-73
2023/04/25 02:58:33;;;;;;;7.43;5.10;;;;;;;10.60;100.00;94280.50;5000837;28;20292;-73
2023/04/25 03:00:58;;;;;;;8.53;5.10;;;;;;;10.55;100.00;94278.53;5006983;28;20226;-72
2023/04/25 03:03:23;;;;;;;8.37;5.23;;;;;;;10.61;100.00;94285.53;5024097;28;20233;-72
2023/04/25 03:05:52;;;;;;;8.57;5.03;;;;;;;10.60;100.00;94283.91;5023245;28;20230;-72
2023/04/25 03:08:18;;;;;;;8.27;5.40;;;;;;;10.35;100.00;94274.47;4992692;28;20229;-71
2023/04/25 03:10:44;;;;;;;8.27;4.93;;;;;;;10.20;100.00;94276.63;5004555;28;20237;-73
2023/04/25 03:13:10;;;;;;;8.83;5.13;;;;;;;10.18;100.00;94279.44;5004252;28;20218;-73
2023/04/25 03:15:35;;;;;;;8.07;5.53;;;;;;;10.29;100.00;94268.31;5000516;28;20243;-72
2023/04/25 03:18:01;;;;;;;12.40;5.90;;;;;;;10.39;100.00;94270.44;5006867;28;20620;-73
2023/04/25 03:20:26;;;;;;;7.97;5.50;;;;;;;10.50;100.00;94272.34;5009839;28;20245;-73
2023/04/25 03:22:52;;;;;;;9.87;5.27;;;;;;;10.28;100.00;94281.56;5005521;28;20234;-72
2023/04/25 03:25:17;;;;;;;7.57;5.30;;;;;;;10.40;100.00;94277.25;5018675;28;20250;-71
2023/04/25 03:27:43;;;;;;;7.50;5.13;;;;;;;10.65;100.00;94268.38;5002972;28;20624;-73
2023/04/25 03:30:09;;;;;;;9.57;5.60;;;;;;;10.75;100.00;94270.50;5009159;28;20229;-74
2023/04/25 03:32:34;;;;;;;10.10;5.20;;;;;;;10.55;100.00;94259.44;5029824;28;20241;-73
2023/04/25 03:35:00;;;;;;;9.20;5.80;;;;;;;10.37;100.00;94273.25;5020870;28;20835;-73
2023/04/25 03:37:25;;;;;;;7.60;5.47;;;;;;;10.43;100.00;94275.03;5005479;28;20280;-73
2023/04/25 03:39:51;;;;;;;10.13;5.97;;;;;;;10.64;100.00;94268.59;5029040;28;20222;-74
2023/04/25 03:42:17;;;;;;;9.33;5.80;;;;;;;10.58;100.00;94274.69;5030163;28;20227;-72
2023/04/25 03:44:43;;;;;;;8.33;5.87;;;;;;;10.47;100.00;94265.72;5000027;28;20235;-73
2023/04/25 03:47:08;;;;;;;9.90;6.00;;;;;;;10.72;100.00;94273.56;5007804;28;20235;-74
2023/04/25 03:49:34;;;;;;;9.67;5.97;;;;;;;10.72;100.00;94276.19;5017774;28;20234;-74
2023/04/25 03:52:00;;;;;;;7.90;5.80;;;;;;;10.81;100.00;94272.25;4989722;28;20234;-71
2023/04/25 03:54:25;;;;;;;9.87;5.87;;;;;;;10.81;100.00;94267.84;5005915;28;20620;-74
2023/04/25 03:56:51;;;;;;;8.40;5.70;;;;;;;10.78;100.00;94255.16;5001096;28;20234;-72
2023/04/25 03:59:16;;;;;;;9.50;5.97;;;;;;;11.02;100.00;94265.78;5017546;28;20222;-73
2023/04/25 04:01:41;;;;;;;7.50;5.63;;;;;;;11.26;100.00;94273.56;4985629;28;20746;-73
2023/04/25 04:04:07;;;;;;;10.40;6.20;;;;;;;11.24;100.00;94274.81;5002778;28;20681;-72
2023/04/25 04:06:33;;;;;;;9.20;6.00;;;;;;;11.15;100.00;94276.13;5003362;28;20241;-72
2023/04/25 04:08:58;;;;;;;8.93;6.27;;;;;;;11.24;100.00;94280.88;5028136;28;20253;-73
2023/04/25 04:11:26;;;;;;;9.90;6.00;;;;;;;11.24;100.00;94293.97;5028803;28;20238;-73
2023/04/25 04:13:51;;;;;;;9.53;6.47;;;;;;;11.46;100.00;94286.44;5026356;28;20257;-74
2023/04/25 04:16:17;;;;;;;9.30;6.67;;;;;;;11.52;100.00;94286.38;5004147;28;20656;-73
2023/04/25 04:18:42;;;;;;;11.27;6.80;;;;;;;11.58;100.00;94283.88;5002450;28;20218;-72
2023/04/25 04:21:08;;;;;;;12.27;7.17;;;;;;;11.63;100.00;94295.28;5005936;28;20234;-72
2023/04/25 04:23:34;;;;;;;11.80;8.10;;;;;;;11.49;100.00;94288.59;5009618;28;20227;-73
2023/04/25 04:26:00;;;;;;;12.00;8.57;;;;;;;11.53;100.00;94277.47;4988989;28;20261;-72
2023/04/25 04:28:26;;;;;;;11.07;7.73;;;;;;;11.74;100.00;94286.72;5001763;28;20230;-72
2023/04/25 04:30:52;;;;;;;11.47;7.63;;;;;;;11.83;100.00;94282.75;4987961;28;20237;-73
2023/04/25 04:33:19;;;;;;;11.73;7.40;;;;;;;11.53;100.00;94287.94;5010350;28;20218;-72
2023/04/25 04:35:46;;;;;;;9.43;7.00;;;;;;;11.41;100.00;94284.50;4986979;28;20710;-72
2023/04/25 04:38:12;;;;;;;11.47;7.17;;;;;;;11.33;100.00;94268.25;5001967;28;20241;-72
2023/04/25 04:40:37;;;;;;;13.33;8.10;;;;;;;11.22;100.00;94275.03;4986367;28;20235;-72
2023/04/25 04:43:03;;;;;;;11.33;7.93;;;;;;;11.34;100.00;94275.09;5028497;28;20619;-72
2023/04/25 04:45:28;;;;;;;12.03;8.17;;;;;;;11.51;100.00;94274.28;4989736;28;20234;-73
2023/04/25 04:47:55;;;;;;;12.20;7.80;;;;;;;11.74;100.00;94280.69;4998755;28;20320;-73
2023/04/25 04:50:20;;;;;;;12.30;7.83;;;;;;;11.88;100.00;94289.97;5009238;28;20238;-72
2023/04/25 04:52:46;;;;;;;12.20;7.77;;;;;;;11.64;100.00;94291.66;5019382;28;20773;-72
2023/04/25 04:55:11;;;;;;;13.30;7.97;;;;;;;11.64;100.00;94293.47;5017858;28;20249;-72
2023/04/25 04:57:38;;;;;;;11.70;8.30;;;;;;;11.52;100.00;94285.56;5015569;28;20231;-73
2023/04/25 05:00:10;;;;;;;11.70;8.10;;;;;;;11.56;100.00;94297.19;5028549;28;20700;-73
2023/04/25 05:02:40;;;;;;;13.20;8.60;;;;;;;11.63;100.00;94300.53;5005667;28;20235;-73
2023/04/25 05:05:05;;;;;;;14.87;9.20;;;;;;;11.63;100.00;94302.38;5015928;28;20250;-73
2023/04/25 05:07:31;;;;;;;15.40;9.77;;;;;;;11.74;100.00;94297.22;5018860;28;20226;-73
2023/04/25 05:09:57;;;;;;;15.43;9.50;;;;;;;11.85;100.00;94314.81;5028443;28;20729;-73
2023/04/25 05:12:22;;;;;;;15.47;9.27;;;;;;;11.93;100.00;94316.31;5006621;28;20230;-73
2023/04/25 05:14:48;;;;;;;16.00;9.30;;;;;;;11.67;100.00;94306.94;5011177;28;20219;-72
2023/04/25 05:17:13;;;;;;;13.73;8.40;;;;;;;11.80;100.00;94306.00;5016939;28;20742;-72
2023/04/25 05:19:39;;;;;;;13.27;8.77;;;;;;;11.96;100.00;94318.50;5019324;28;20231;-72
2023/04/25 05:22:04;;;;;;;14.17;8.87;;;;;;;11.86;100.00;94316.41;5029041;28;20252;-72
2023/04/25 05:24:30;;;;;;;12.40;8.37;;;;;;;11.59;100.00;94304.63;5018412;28;20234;-72
2023/04/25 05:26:56;;;;;;;17.00;8.73;;;;;;;11.62;100.00;94304.19;5002353;28;20233;-73
2023/04/25 05:29:21;;;;;;;14.60;9.00;;;;;;;11.85;100.00;94309.56;5003631;28;20246;-73
2023/04/25 05:31:48;;;;;;;14.73;8.93;;;;;;;11.88;100.00;94310.94;5004253;28;20623;-73
2023/04/25 05:34:13;;;;;;;13.70;8.43;;;;;;;11.84;100.00;94315.84;5016635;28;20230;-72
2023/04/25 05:36:39;;;;;;;14.23;8.30;;;;;;;11.75;100.00;94309.28;4986109;28;20242;-73
2023/04/25 05:39:06;;;;;;;11.60;7.90;;;;;;;11.73;100.00;94310.53;4990784;28;20242;-73
2023/04/25 05:41:31;;;;;;;15.83;8.83;;;;;;;11.66;100.00;94310.56;5020525;28;20296;-73
2023/04/25 05:43:56;;;;;;;16.83;9.13;;;;;;;11.60;100.00;94302.81;5020645;28;20231;-73
2023/04/25 05:46:22;;;;;;;13.30;9.00;;;;;;;11.66;100.00;94300.09;4985664;28;20788;-73
2023/04/25 05:48:47;;;;;;;13.47;8.13;;;;;;;11.92;100.00;94304.22;5011083;28;20237;-73
2023/04/25 05:51:13;;;;;;;12.57;7.80;;;;;;;11.92;100.00;94304.22;5017006;28;20230;-72
2023/04/25 05:53:38;;;;;;;11.07;7.10;;;;;;;11.97;100.00;94309.59;5010318;28;20233;-72
2023/04/25 05:56:04;;;;;;;11.97;6.70;;;;;;;12.10;100.00;94317.28;5006538;28;20226;-73
2023/04/25 05:58:30;;;;;;;14.13;7.20;;;;;;;12.19;100.00;94308.06;5022265;28;20283;-73
2023/04/25 06:00:55;;;;;;;12.07;6.60;;;;;;;11.95;100.00;94307.22;5007766;28;20261;-72
2023/04/25 06:03:21;;;;;;;11.50;6.33;;;;;;;12.24;100.00;94308.22;5024085;28;21023;-72
2023/04/25 06:05:46;;;;;;;10.83;6.47;;;;;;;12.42;100.00;94305.50;5012128;28;21002;-72
2023/04/25 06:08:12;;;;;;;12.37;6.47;;;;;;;12.24;100.00;94302.16;5001790;28;20274;-72
2023/04/25 06:10:37;;;;;;;10.57;6.23;;;;;;;12.43;100.00;94309.72;4989227;28;20234;-73
2023/04/25 06:13:03;;;;;;;9.13;6.13;;;;;;;12.65;100.00;94310.00;5028570;28;20301;-72
2023/04/25 06:15:29;;;;;;;12.40;6.47;;;;;;;12.30;100.00;94309.91;5020567;28;20277;-73
2023/04/25 06:17:55;;;;;;;10.77;6.40;;;;;;;12.65;100.00;94304.75;5021432;28;20749;-73
2023/04/25 06:20:22;;;;;;;9.83;6.13;;;;;;;12.52;100.00;94311.00;5010606;28;20246;-74
2023/04/25 06:22:49;;;;;;;10.73;6.47;;;;;;;12.66;100.00;94306.31;5027672;28;20242;-73
2023/04/25 06:25:15;;;;;;;12.37;6.33;;;;;;;12.72;100.00;94313.31;5019215;28;20245;-74
2023/04/25 06:27:40;;;;;;;9.77;6.27;;;;;;;12.80;100.00;94313.75;5020687;28;20240;-74
2023/04/25 06:30:08;;;;;;;10.47;6.13;;;;;;;12.69;100.00;94319.00;5023246;28;20245;-72
2023/04/25 06:32:34;;;;;;;10.53;6.60;;;;;;;12.70;100.00;94316.19;5016879;28;20230;-73
2023/04/25 06:35:00;;;;;;;14.33;7.50;;;;;;;12.66;100.00;94319.47;5016347;28;20222;-74
2023/04/25 06:37:25;;;;;;;12.33;7.70;;;;;;;12.81;100.00;94314.56;5025593;28;20277;-72
2023/04/25 06:39:50;;;;;;;10.87;7.20;;;;;;;13.19;100.00;94312.31;5023576;28;20233;-73
2023/04/25 06:42:16;;;;;;;12.67;7.20;;;;;;;13.21;98.93;94315.50;5017020;28;20230;-74
2023/04/25 06:44:41;;;;;;;9.40;6.40;;;;;;;13.01;97.50;94319.50;5004336;28;20234;-73
2023/04/25 06:47:07;;;;;;;11.10;7.10;;;;;;;13.25;100.00;94321.91;5012391;28;20678;-73
2023/04/25 06:49:32;;;;;;;12.30;7.50;;;;;;;13.30;100.00;94322.00;5007105;28;20734;-73
2023/04/25 06:51:58;;;;;;;14.27;7.43;;;;;;;13.35;99.80;94319.47;5025283;28;20234;-74
2023/04/25 06:54:24;;;;;;;12.97;7.33;;;;;;;13.33;97.83;94318.91;5022011;28;20257;-73
2023/04/25 06:56:50;;;;;;;13.07;7.23;;;;;;;13.52;98.21;94316.16;5002461;28;20673;-73
2023/04/25 06:59:15;;;;;;;12.37;7.23;;;;;;;13.69;95.04;94317.81;5003565;28;20300;-73
2023/04/25 07:01:41;;;;;;;13.70;7.30;;;;;;;13.34;97.82;94312.66;5026611;28;20292;-73
2023/04/25 07:04:06;;;;;;;16.83;7.27;;;;;;;13.10;96.91;94318.94;5007560;28;20677;-73
2023/04/25 07:06:32;;;;;;;12.80;7.40;;;;;;;13.57;96.92;94322.31;4989596;28;20246;-74
2023/04/25 07:08:57;;;;;;;15.43;7.57;;;;;;;13.84;98.25;94325.22;5003491;28;20241;-73
2023/04/25 07:11:23;;;;;;;13.67;7.60;;;;;;;13.75;97.56;94327.41;4984257;28;20252;-74
2023/04/25 07:13:48;;;;;;;12.73;7.00;;;;;;;13.25;95.18;94329.00;4989199;28;20234;-73
2023/04/25 07:16:14;;;;;;;12.23;7.07;;;;;;;13.08;96.61;94320.22;5016744;28;20280;-74
2023/04/25 07:18:39;;;;;;;10.67;6.90;;;;;;;13.23;96.86;94325.81;4997461;28;20230;-73
2023/04/25 07:21:05;;;;;;;13.93;7.33;;;;;;;13.36;96.86;94323.72;4980435;28;21276;-73
2023/04/25 07:23:30;;;;;;;12.10;7.50;;;;;;;13.35;98.86;94322.09;5013017;28;20223;-73
2023/04/25 07:25:56;;;;;;;9.50;6.53;;;;;;;13.48;95.45;94321.06;5015457;28;20279;-73
2023/04/25 07:28:21;;;;;;;12.57;6.83;;;;;;;13.57;93.80;94319.66;5025233;28;20276;-74
2023/04/25 07:30:47;;;;;;;10.90;6.90;;;;;;;13.38;95.58;94319.03;5024017;28;20238;-74
2023/04/25 07:33:12;;;;;;;13.03;7.33;;;;;;;13.58;98.22;94318.66;4980502;28;20238;-73
2023/04/25 07:35:38;;;;;;;11.53;7.20;;;;;;;13.56;94.30;94314.66;5012934;28;20270;-73
2023/04/25 07:38:03;;;;;;;14.50;7.37;;;;;;;13.73;95.05;94313.69;5014648;28;20225;-73
2023/04/25 07:40:29;;;;;;;12.37;7.57;;;;;;;14.00;93.88;94313.94;5004785;28;20238;-73
2023/04/25 07:42:55;;;;;;;16.53;7.23;;;;;;;14.48;91.22;94311.66;4995763;28;20234;-73
2023/04/25 07:45:24;;;;;;;14.43;7.20;;;;;;;14.82;94.21;94313.28;4988823;28;20237;-74
2023/04/25 07:47:49;;;;;;;12.90;7.13;;;;;;;14.75;90.67;94307.38;5003004;28;20227;-73
2023/04/25 07:50:15;;;;;;;9.90;6.60;;;;;;;14.75;89.79;94315.28;5006540;28;20226;-73
2023/04/25 07:52:40;;;;;;;11.00;7.43;;;;;;;14.45;90.55;94303.47;5004687;28;20227;-73
2023/04/25 07:55:06;;;;;;;10.27;6.60;;;;;;;14.48;88.11;94300.34;4999988;28;20238;-73
2023/04/25 07:57:32;;;;;;;13.80;7.13;;;;;;;14.49;90.43;94299.31;5021094;28;20737;-73
2023/04/25 07:59:57;;;;;;;11.53;7.00;;;;;;;14.65;90.15;94299.31;5020683;28;20240;-73
2023/04/25 08:02:22;;;;;;;11.40;6.97;;;;;;;14.82;92.38;94297.47;5017465;28;20227;-72
2023/04/25 08:04:49;;;;;;;12.73;6.77;;;;;;;14.87;92.45;94296.75;5018232;28;20235;-74
2023/04/25 08:07:14;;;;;;;14.93;7.10;;;;;;;14.80;92.96;94289.03;5011236;28;20245;-72
2023/04/25 08:09:43;;;;;;;15.57;6.50;;;;;;;14.97;88.09;94298.75;5002288;28;20246;-72
2023/04/25 08:12:08;;;;;;;12.63;7.10;;;;;;;15.15;87.33;94301.09;5029289;28;20245;-74
2023/04/25 08:14:36;;;;;;;13.57;6.53;;;;;;;15.96;85.80;94305.59;5021369;28;20271;-75
2023/04/25 08:17:03;;;;;;;10.07;6.13;;;;;;;15.60;83.77;94298.28;4987184;28;20256;-73
2023/04/25 08:19:30;;;;;;;10.40;6.47;;;;;;;15.41;84.51;94290.66;5016899;28;20292;-73
2023/04/25 08:21:56;;;;;;;9.87;6.40;;;;;;;15.72;84.67;94286.59;5006414;28;20238;-74
2023/04/25 08:24:22;;;;;;;12.57;6.13;;;;;;;15.70;85.69;94283.41;5006577;28;20246;-74
2023/04/25 08:26:48;;;;;;;15.00;5.83;;;;;;;16.10;82.52;94283.03;5011691;28;20234;-74
2023/04/25 08:29:13;;;;;;;12.23;5.60;;;;;;;15.83;79.15;94277.75;5009691;28;20738;-73
2023/04/25 08:31:39;;;;;;;12.80;6.00;;;;;;;16.41;79.73;94282.28;4984448;28;20235;-75
2023/04/25 08:34:07;;;;;;;8.27;5.23;;;;;;;16.34;80.35;94271.13;4993509;28;20242;-74
2023/04/25 08:36:32;;;;;;;9.10;5.40;;;;;;;16.14;79.81;94274.38;5005286;28;20258;-73
2023/04/25 08:38:58;;;;;;;11.07;5.33;;;;;;;15.96;83.97;94280.00;5016785;28;20250;-73
2023/04/25 08:41:24;;;;;;;11.30;5.80;;;;;;;15.56;87.93;94279.53;4993123;28;20673;-74
2023/04/25 08:43:49;;;;;;;11.80;6.10;;;;;;;15.13;94.64;94298.72;4989633;28;20916;-74
2023/04/25 08:46:17;;;;;;;12.97;7.27;;;;;;;14.72;94.13;94297.31;5007347;28;20239;-74
2023/04/25 08:48:43;;;;;;;15.33;9.20;;;;;;;14.45;97.24;94306.09;4978419;28;20234;-74
2023/04/25 08:51:22;;;;;;;15.03;9.07;;;;;;;14.27;100.00;94301.00;4995854;28;20295;-75
2023/04/25 08:53:48;;;;;;;14.07;7.10;;;;;;;14.24;95.55;94299.63;5027010;28;20618;-74
2023/04/25 08:56:15;;;;;;;14.57;9.07;;;;;;;14.34;98.19;94293.78;5000799;28;20229;-75
2023/04/25 08:58:41;;;;;;;15.07;9.00;;;;;;;14.64;97.97;94291.66;4982515;28;20244;-75
2023/04/25 09:01:06;;;;;;;16.43;9.40;;;;;;;14.67;97.44;94296.44;5007137;28;20237;-74
2023/04/25 09:03:32;;;;;;;16.23;9.30;;;;;;;14.76;97.18;94279.19;5028171;28;20219;-74
2023/04/25 09:05:57;;;;;;;15.47;9.03;;;;;;;14.94;98.16;94278.13;4987246;28;20237;-73
2023/04/25 09:08:23;;;;;;;14.37;8.30;;;;;;;14.61;98.26;94268.44;5008021;28;20237;-73
2023/04/25 09:10:48;;;;;;;14.67;8.00;;;;;;;14.72;97.31;94276.25;5000458;28;20258;-73
2023/04/25 09:13:17;;;;;;;13.77;7.37;;;;;;;14.70;95.19;94272.25;4993971;28;20218;-74
2023/04/25 09:15:53;;;;;;;12.63;7.07;;;;;;;14.76;93.28;94266.81;5016245;28;20234;-74
2023/04/25 09:18:28;;;;;;;10.93;7.37;;;;;;;15.42;91.63;94265.09;4994265;28;20325;-74
2023/04/25 09:20:54;;;;;;;9.73;6.50;;;;;;;15.74;88.09;94257.34;5007333;28;20321;-75
2023/04/25 09:23:21;;;;;;;9.47;6.37;;;;;;;15.47;87.53;94254.63;5027141;28;20242;-73
2023/04/25 09:25:51;;;;;;;11.27;6.43;;;;;;;15.81;88.73;94253.44;5017866;28;20774;-74
2023/04/25 09:28:16;;;;;;;8.10;5.10;;;;;;;16.04;83.10;94258.44;4999035;28;20280;-73
2023/04/25 09:30:42;;;;;;;9.07;5.20;;;;;;;15.86;85.05;94256.13;5010769;28;20249;-74
2023/04/25 09:33:11;;;;;;;7.10;4.67;;;;;;;15.75;82.22;94265.00;4996407;28;20238;-74
2023/04/25 09:35:42;;;;;;;7.70;4.60;;;;;;;15.71;80.82;94258.63;4996108;28;20238;-74
2023/04/25 09:38:12;;;;;;;7.77;4.73;;;;;;;15.70;82.65;94261.47;5010520;28;20242;-75
2023/04/25 09:40:50;;;;;;;6.37;4.37;;;;;;;15.91;81.25;94261.47;5003811;28;20234;-74
2023/04/25 09:43:22;;;;;;;11.53;4.90;;;;;;;16.27;77.81;94254.69;5002959;28;20280;-74
2023/04/25 09:45:49;;;;;;;6.13;4.47;;;;;;;16.33;79.81;94243.13;5017154;28;20236;-74
2023/04/25 09:48:21;;;;;;;8.17;4.40;;;;;;;16.84;77.95;94234.56;5000374;28;20242;-74
2023/04/25 09:51:13;;;;;;;7.93;4.33;;;;;;;17.79;80.00;94244.03;5020712;28;20230;-75
2023/04/25 09:53:43;;;;;;;10.50;4.60;;;;;;;17.67;75.29;94253.28;5011415;28;20234;-73
2023/04/25 09:56:09;;;;;;;7.83;5.00;;;;;;;17.68;75.54;94252.19;5015706;28;20223;-74
2023/04/25 09:58:36;;;;;;;11.00;5.33;;;;;;;18.26;79.27;94251.03;5008577;28;21103;-74
2023/04/25 10:01:03;;;;;;;7.30;5.30;;;;;;;18.04;75.73;94253.91;5004350;28;20726;-74
2023/04/25 10:03:32;;;;;;;9.03;5.10;;;;;;;17.79;74.78;94259.91;5001982;28;20238;-75
2023/04/25 10:06:02;;;;;;;7.37;4.93;;;;;;;17.26;76.99;94254.91;4994862;28;20233;-74
2023/04/25 10:08:32;;;;;;;8.70;4.30;;;;;;;16.64;79.85;94254.78;5005774;28;20728;-74
2023/04/25 10:11:08;;;;;;;6.13;4.30;;;;;;;16.64;80.27;94245.00;4990754;28;20566;-74
2023/04/25 10:13:34;;;;;;;7.53;4.40;;;;;;;16.35;78.98;94250.78;5005170;28;20316;-74
2023/04/25 10:16:01;;;;;;;7.30;4.20;;;;;;;16.08;80.73;94241.06;5001928;28;20330;-74
2023/04/25 10:18:28;;;;;;;8.23;4.13;;;;;;;16.05;79.79;94243.38;5000459;28;20259;-74
2023/04/25 10:20:57;;;;;;;6.87;3.90;;;;;;;16.22;82.70;94269.69;5010065;28;20380;-75
2023/04/25 10:23:23;;;;;;;10.27;5.03;;;;;;;16.16;90.91;94268.84;4993881;28;20231;-73
2023/04/25 10:25:52;;;;;;;11.47;4.33;;;;;;;15.61;89.58;94257.69;5031394;28;20288;-76
2023/04/25 10:28:21;;;;;;;6.10;3.03;;;;;;;15.50;85.15;94240.94;5019756;28;20300;-76
2023/04/25 10:31:07;;;;;;;4.03;2.63;;;;;;;16.06;88.81;94245.78;5020050;28;20238;-75
2023/04/25 10:33:40;;;;;;;6.23;2.60;;;;;;;16.61;81.08;94236.78;5024829;28;20309;-75
2023/04/25 10:36:13;;;;;;;4.53;2.07;;;;;;;16.95;79.82;94238.06;5004999;28;20261;-74
2023/04/25 10:38:39;;;;;;;5.20;1.80;;;;;;;16.85;84.22;94253.88;5005855;28;20276;-74
2023/04/25 10:41:08;;;;;;;5.23;2.40;;;;;;;16.33;82.54;94268.75;5000833;28;20713;-75
2023/04/25 10:43:38;;;;;;;3.37;1.70;;;;;;;15.34;79.98;94263.66;5004734;28;20253;-73
2023/04/25 10:46:16;;;;;;;3.43;1.50;;;;;;;15.28;78.74;94255.94;5000894;28;20235;-74
2023/04/25 10:49:10;;;;;;;2.97;1.60;;;;;;;16.15;85.28;94246.94;5003954;28;20244;-75
2023/04/25 10:51:36;;;;;;;3.17;1.67;;;;;;;16.66;80.50;94244.75;4976915;28;20238;-75
2023/04/25 10:54:05;;;;;;;3.83;1.87;;;;;;;17.05;75.92;94242.63;4981609;28;20235;-74
2023/04/25 10:56:32;;;;;;;2.43;1.57;;;;;;;16.89;76.58;94246.22;4999842;28;20230;-74
2023/04/25 10:59:21;;;;;;;2.73;1.80;;;;;;;16.23;76.47;94244.88;5000503;28;20230;-73
2023/04/25 11:01:48;;;;;;;3.33;1.70;;;;;;;16.68;77.55;94242.63;4991235;28;20227;-74
2023/04/25 11:04:21;;;;;;;4.50;2.37;;;;;;;17.21;73.54;94242.47;4979215;28;20222;-73
2023/04/25 11:07:05;;;;;;;3.13;1.90;;;;;;;16.98;76.98;94242.84;5019196;28;20229;-73
2023/04/25 11:09:32;;;;;;;3.97;2.37;;;;;;;17.26;75.91;94226.63;5033655;28;20248;-75
2023/04/25 11:11:58;;;;;;;2.83;1.67;;;;;;;17.30;73.88;94227.69;5007000;28;20253;-73
2023/04/25 11:14:24;;;;;;;3.93;1.60;;;;;;;17.50;72.41;94219.81;4975311;28;20294;-73
2023/04/25 11:16:55;;;;;;;1.67;1.40;;;;;;;17.81;69.32;94215.47;5011531;28;20230;-72
2023/04/25 11:19:21;;;;;;;3.20;1.90;;;;;;;17.87;73.49;94216.25;4998698;28;20230;-74
2023/04/25 11:21:46;;;;;;;4.33;1.70;;;;;;;17.73;74.50;94210.69;5013041;28;20253;-73